createdAt,value
2019-03-17T00:00:12.256Z,67.39
2019-03-17T00:01:25.073Z,67.34
2019-03-17T00:02:33.262Z,67.36
2019-03-17T00:03:41.390Z,67.35
2019-03-17T00:04:49.250Z,67.20
2019-03-17T00:05:57.335Z,67.27
2019-03-17T00:07:05.878Z,67.28
2019-03-17T00:08:14.226Z,67.17
2019-03-17T00:09:22.218Z,67.14
2019-03-17T00:10:30.349Z,67.16
2019-03-17T00:11:38.379Z,67.18
2019-03-17T00:12:46.545Z,67.21
2019-03-17T00:13:54.747Z,67.26
2019-03-17T00:15:05.750Z,67.26
2019-03-17T00:16:13.578Z,67.36
2019-03-17T00:17:22.826Z,67.32
2019-03-17T00:18:31.653Z,67.27
2019-03-17T00:19:39.602Z,67.12
2019-03-17T00:20:47.653Z,67.09
2019-03-17T00:21:55.620Z,67.09
2019-03-17T00:23:03.819Z,67.06
2019-03-17T00:24:12.020Z,67.30
2019-03-17T00:25:20.274Z,67.39
2019-03-17T00:26:28.230Z,67.28
2019-03-17T00:27:36.316Z,67.29
2019-03-17T00:28:44.566Z,67.33
2019-03-17T00:29:52.787Z,67.39
2019-03-17T00:31:00.829Z,67.33
2019-03-17T00:32:08.898Z,67.24
2019-03-17T00:33:16.812Z,67.28
2019-03-17T00:34:24.794Z,67.24
2019-03-17T00:35:33.944Z,67.39
2019-03-17T00:36:42.114Z,67.35
2019-03-17T00:37:50.606Z,67.36
2019-03-17T00:38:58.414Z,67.38
2019-03-17T00:40:10.344Z,67.30
2019-03-17T00:41:18.864Z,67.36
2019-03-17T00:42:26.900Z,67.34
2019-03-17T00:43:35.096Z,67.41
2019-03-17T00:44:43.204Z,67.58
2019-03-17T00:45:51.873Z,67.52
2019-03-17T00:46:59.964Z,67.49
2019-03-17T00:48:08.331Z,67.47
2019-03-17T00:49:16.275Z,67.45
2019-03-17T00:50:24.426Z,67.38
2019-03-17T00:51:32.705Z,67.30
2019-03-17T00:52:40.908Z,67.26
2019-03-17T00:53:48.987Z,67.16
2019-03-17T00:54:56.878Z,67.21
2019-03-17T00:56:05.196Z,67.13
2019-03-17T00:57:13.298Z,67.12
2019-03-17T00:58:21.416Z,67.09
2019-03-17T00:59:29.507Z,67.14
2019-03-17T01:00:38.060Z,67.12
2019-03-17T01:01:46.194Z,67.18
2019-03-17T01:02:54.515Z,67.19
2019-03-17T01:04:02.442Z,67.13
2019-03-17T01:05:10.652Z,67.41
2019-03-17T01:06:18.355Z,67.47
2019-03-17T01:07:26.261Z,67.36
2019-03-17T01:08:34.561Z,67.28
2019-03-17T01:09:42.765Z,67.27
2019-03-17T01:10:50.891Z,67.16
2019-03-17T01:11:58.743Z,67.01
2019-03-17T01:13:06.912Z,67.03
2019-03-17T01:14:14.855Z,67.07
2019-03-17T01:15:22.666Z,67.06
2019-03-17T01:16:30.635Z,67.17
2019-03-17T01:17:38.865Z,67.28
2019-03-17T01:18:46.639Z,67.15
2019-03-17T01:19:54.811Z,67.13
2019-03-17T01:21:02.821Z,67.33
2019-03-17T01:22:10.893Z,67.70
2019-03-17T01:23:18.999Z,67.79
2019-03-17T01:24:26.833Z,67.87
2019-03-17T01:25:34.685Z,67.72
2019-03-17T01:26:42.695Z,67.53
2019-03-17T01:27:50.681Z,67.43
2019-03-17T01:28:58.669Z,67.38
2019-03-17T01:30:10.674Z,67.15
2019-03-17T01:31:18.774Z,67.03
2019-03-17T01:32:26.704Z,66.92
2019-03-17T01:33:34.762Z,66.77
2019-03-17T01:34:42.644Z,66.83
2019-03-17T01:35:50.534Z,66.88
2019-03-17T01:36:58.641Z,66.87
2019-03-17T01:38:06.836Z,66.84
2019-03-17T01:39:14.695Z,66.70
2019-03-17T01:40:22.640Z,66.55
2019-03-17T01:41:30.590Z,66.48
2019-03-17T01:42:38.699Z,66.24
2019-03-17T01:43:46.697Z,66.20
2019-03-17T01:44:55.106Z,66.13
2019-03-17T01:46:03.173Z,66.30
2019-03-17T01:47:11.025Z,66.30
2019-03-17T01:48:19.189Z,66.56
2019-03-17T01:49:27.296Z,66.88
2019-03-17T01:50:35.284Z,67.00
2019-03-17T01:51:43.310Z,66.89
2019-03-17T01:52:51.244Z,66.76
2019-03-17T01:53:59.233Z,66.69
2019-03-17T01:55:08.376Z,66.65
2019-03-17T01:56:16.498Z,66.61
2019-03-17T01:57:24.804Z,66.61
2019-03-17T01:58:32.878Z,66.49
2019-03-17T01:59:40.869Z,66.45
2019-03-17T02:00:48.743Z,66.48
2019-03-17T02:01:56.739Z,66.51
2019-03-17T02:03:05.089Z,66.46
2019-03-17T02:04:13.315Z,66.37
2019-03-17T02:05:22.522Z,66.39
2019-03-17T02:06:30.886Z,66.34
2019-03-17T02:07:38.996Z,66.17
2019-03-17T02:08:47.488Z,66.19
2019-03-17T02:09:55.690Z,66.20
2019-03-17T02:11:03.505Z,66.18
2019-03-17T02:12:11.371Z,66.33
2019-03-17T02:13:19.402Z,66.22
2019-03-17T02:14:27.229Z,66.12
2019-03-17T02:15:35.361Z,66.15
2019-03-17T02:16:43.633Z,66.06
2019-03-17T02:17:51.657Z,66.07
2019-03-17T02:18:59.467Z,66.07
2019-03-17T02:20:10.966Z,65.96
2019-03-17T02:21:19.038Z,65.98
2019-03-17T02:22:27.101Z,65.83
2019-03-17T02:23:35.073Z,65.75
2019-03-17T02:24:43.008Z,65.73
2019-03-17T02:25:51.002Z,65.64
2019-03-17T02:27:02.168Z,65.56
2019-03-17T02:28:10.267Z,65.51
2019-03-17T02:29:18.554Z,65.48
2019-03-17T02:30:26.508Z,65.49
2019-03-17T02:31:34.550Z,65.46
2019-03-17T02:32:42.856Z,65.38
2019-03-17T02:33:52.319Z,65.41
2019-03-17T02:35:00.498Z,65.25
2019-03-17T02:36:08.574Z,65.28
2019-03-17T02:37:16.830Z,65.33
2019-03-17T02:38:24.903Z,65.28
2019-03-17T02:39:32.881Z,65.23
2019-03-17T02:40:40.858Z,65.18
2019-03-17T02:41:49.003Z,65.23
2019-03-17T02:42:57.100Z,65.21
2019-03-17T02:44:04.925Z,65.07
2019-03-17T02:45:13.365Z,65.09
2019-03-17T02:46:21.368Z,65.10
2019-03-17T02:47:29.433Z,65.08
2019-03-17T02:48:37.455Z,64.96
2019-03-17T02:49:45.651Z,64.84
2019-03-17T02:50:56.314Z,64.92
2019-03-17T02:52:03.149Z,64.77
2019-03-17T02:53:11.581Z,64.76
2019-03-17T02:54:19.555Z,64.78
2019-03-17T02:55:27.565Z,64.74
2019-03-17T02:56:35.497Z,64.75
2019-03-17T02:57:43.840Z,64.60
2019-03-17T02:58:51.794Z,64.60
2019-03-17T02:59:59.782Z,64.68
2019-03-17T03:01:07.739Z,64.68
2019-03-17T03:02:15.654Z,64.73
2019-03-17T03:03:23.806Z,64.77
2019-03-17T03:04:31.916Z,64.67
2019-03-17T03:05:54.154Z,64.62
2019-03-17T03:06:49.483Z,64.55
2019-03-17T03:07:57.723Z,64.52
2019-03-17T03:09:08.327Z,64.51
2019-03-17T03:10:16.235Z,64.49
2019-03-17T03:11:24.459Z,64.46
2019-03-17T03:12:32.788Z,64.41
2019-03-17T03:13:40.715Z,64.38
2019-03-17T03:14:49.106Z,64.30
2019-03-17T03:15:57.305Z,64.41
2019-03-17T03:17:05.623Z,64.35
2019-03-17T03:18:13.715Z,64.35
2019-03-17T03:19:22.096Z,64.31
2019-03-17T03:20:30.226Z,64.35
2019-03-17T03:21:38.299Z,64.29
2019-03-17T03:22:46.818Z,64.19
2019-03-17T03:23:54.901Z,64.21
2019-03-17T03:25:02.793Z,64.16
2019-03-17T03:26:10.686Z,64.31
2019-03-17T03:27:18.521Z,64.27
2019-03-17T03:28:26.718Z,64.26
2019-03-17T03:29:34.675Z,64.19
2019-03-17T03:30:42.378Z,64.20
2019-03-17T03:31:50.402Z,64.23
2019-03-17T03:32:58.551Z,64.24
2019-03-17T03:34:06.757Z,64.15
2019-03-17T03:35:14.968Z,64.09
2019-03-17T03:36:22.974Z,64.09
2019-03-17T03:37:30.865Z,64.14
2019-03-17T03:38:39.033Z,64.06
2019-03-17T03:39:47.234Z,64.03
2019-03-17T03:40:55.438Z,64.18
2019-03-17T03:42:03.847Z,64.20
2019-03-17T03:43:12.245Z,64.11
2019-03-17T03:45:39.801Z,64.09
2019-03-17T03:46:47.880Z,64.13
2019-03-17T03:47:56.205Z,64.18
2019-03-17T03:49:04.770Z,64.12
2019-03-17T03:50:13.927Z,64.27
2019-03-17T03:51:22.032Z,64.23
2019-03-17T03:52:30.130Z,64.28
2019-03-17T03:53:38.260Z,64.51
2019-03-17T03:54:46.112Z,64.49
2019-03-17T03:55:54.050Z,64.48
2019-03-17T03:57:02.013Z,64.28
2019-03-17T03:58:10.205Z,64.11
2019-03-17T03:59:18.333Z,64.16
2019-03-17T04:00:26.248Z,64.23
2019-03-17T04:01:34.529Z,64.28
2019-03-17T04:02:42.899Z,64.29
2019-03-17T04:03:51.250Z,64.32
2019-03-17T04:04:59.493Z,64.27
2019-03-17T04:06:25.142Z,64.12
2019-03-17T04:07:19.330Z,63.99
2019-03-17T04:08:27.157Z,63.91
2019-03-17T04:09:35.141Z,63.84
2019-03-17T04:10:43.233Z,63.77
2019-03-17T04:11:51.456Z,63.82
2019-03-17T04:12:59.651Z,63.88
2019-03-17T04:14:08.002Z,63.76
2019-03-17T04:15:16.198Z,63.66
2019-03-17T04:16:24.461Z,63.74
2019-03-17T04:17:32.842Z,63.75
2019-03-17T04:18:40.789Z,63.76
2019-03-17T04:19:49.192Z,63.77
2019-03-17T04:20:57.332Z,63.70
2019-03-17T04:22:05.505Z,63.63
2019-03-17T04:23:13.484Z,63.63
2019-03-17T04:24:21.955Z,63.58
2019-03-17T04:25:29.867Z,63.46
2019-03-17T04:26:38.280Z,63.53
2019-03-17T04:27:46.450Z,63.53
2019-03-17T04:28:55.426Z,63.56
2019-03-17T04:30:04.215Z,63.51
2019-03-17T04:31:14.496Z,63.50
2019-03-17T04:32:22.550Z,63.55
2019-03-17T04:33:30.283Z,63.49
2019-03-17T04:34:38.550Z,63.44
2019-03-17T04:35:46.608Z,63.39
2019-03-17T04:36:54.811Z,63.43
2019-03-17T04:38:02.837Z,63.52
2019-03-17T04:39:11.008Z,63.47
2019-03-17T04:40:19.000Z,63.45
2019-03-17T04:41:27.258Z,63.53
2019-03-17T04:42:35.297Z,63.48
2019-03-17T04:43:43.259Z,63.52
2019-03-17T04:44:51.452Z,63.44
2019-03-17T04:45:59.779Z,63.47
2019-03-17T04:47:07.654Z,63.55
2019-03-17T04:48:15.613Z,63.61
2019-03-17T04:49:23.477Z,63.71
2019-03-17T04:50:31.631Z,63.74
2019-03-17T04:51:39.370Z,63.71
2019-03-17T04:52:47.478Z,63.67
2019-03-17T04:53:55.623Z,63.73
2019-03-17T04:55:03.708Z,63.76
2019-03-17T04:56:12.049Z,63.77
2019-03-17T04:57:20.348Z,63.75
2019-03-17T04:58:28.524Z,63.69
2019-03-17T04:59:36.460Z,63.64
2019-03-17T05:00:44.544Z,63.65
2019-03-17T05:01:52.805Z,63.63
2019-03-17T05:03:00.755Z,63.66
2019-03-17T05:04:08.643Z,63.62
2019-03-17T05:05:16.752Z,63.64
2019-03-17T05:06:24.717Z,63.56
2019-03-17T05:07:32.619Z,63.53
2019-03-17T05:08:40.943Z,63.54
2019-03-17T05:09:49.116Z,63.57
2019-03-17T05:11:54.970Z,63.52
2019-03-17T05:13:03.060Z,63.52
2019-03-17T05:14:11.041Z,63.42
2019-03-17T05:15:18.802Z,63.53
2019-03-17T05:16:26.948Z,63.39
2019-03-17T05:17:35.173Z,63.43
2019-03-17T05:18:43.099Z,63.44
2019-03-17T05:19:50.987Z,63.44
2019-03-17T05:20:59.123Z,63.43
2019-03-17T05:22:07.125Z,63.41
2019-03-17T05:23:15.317Z,63.42
2019-03-17T05:24:23.111Z,63.49
2019-03-17T05:25:31.209Z,63.54
2019-03-17T05:26:39.252Z,63.60
2019-03-17T05:27:47.306Z,63.69
2019-03-17T05:28:55.712Z,63.66
2019-03-17T05:30:04.110Z,63.68
2019-03-17T05:31:12.338Z,63.65
2019-03-17T05:32:20.550Z,63.61
2019-03-17T05:33:28.558Z,63.58
2019-03-17T05:34:36.609Z,63.41
2019-03-17T05:35:44.714Z,63.51
2019-03-17T05:37:05.052Z,63.40
2019-03-17T05:38:02.535Z,63.37
2019-03-17T05:39:10.622Z,63.26
2019-03-17T05:40:18.684Z,63.18
2019-03-17T05:41:27.019Z,63.25
2019-03-17T05:42:35.233Z,63.32
2019-03-17T05:43:43.357Z,63.15
2019-03-17T05:44:51.150Z,62.95
2019-03-17T05:45:59.402Z,62.97
2019-03-17T05:47:07.303Z,62.91
2019-03-17T05:48:15.233Z,62.94
2019-03-17T05:49:24.660Z,62.88
2019-03-17T05:50:32.797Z,62.73
2019-03-17T05:51:41.124Z,62.73
2019-03-17T05:52:49.336Z,62.83
2019-03-17T05:53:57.525Z,62.53
2019-03-17T05:55:09.372Z,62.57
2019-03-17T05:56:17.305Z,62.38
2019-03-17T05:57:25.297Z,62.53
2019-03-17T05:58:33.579Z,62.35
2019-03-17T05:59:41.699Z,62.33
2019-03-17T06:00:49.861Z,62.18
2019-03-17T06:01:58.514Z,62.15
2019-03-17T06:03:06.662Z,62.18
2019-03-17T06:04:14.693Z,62.21
2019-03-17T06:05:22.623Z,62.16
2019-03-17T06:06:30.514Z,62.15
2019-03-17T06:07:38.678Z,61.91
2019-03-17T06:08:46.476Z,62.14
2019-03-17T06:09:54.961Z,62.08
2019-03-17T06:11:04.337Z,62.01
2019-03-17T06:12:12.415Z,61.96
2019-03-17T06:13:20.663Z,61.75
2019-03-17T06:14:29.465Z,61.76
2019-03-17T06:15:37.926Z,61.63
2019-03-17T06:16:46.143Z,61.80
2019-03-17T06:17:54.087Z,61.74
2019-03-17T06:19:02.266Z,61.69
2019-03-17T06:20:12.776Z,61.43
2019-03-17T06:21:21.069Z,61.21
2019-03-17T06:22:29.263Z,61.37
2019-03-17T06:23:37.495Z,61.45
2019-03-17T06:24:45.950Z,61.41
2019-03-17T06:25:53.849Z,61.28
2019-03-17T06:27:02.448Z,60.86
2019-03-17T06:28:10.611Z,60.81
2019-03-17T06:29:19.179Z,60.93
2019-03-17T06:30:27.509Z,60.83
2019-03-17T06:31:35.760Z,61.14
2019-03-17T06:32:44.069Z,61.17
2019-03-17T06:33:52.145Z,61.28
2019-03-17T06:35:00.363Z,60.92
2019-03-17T06:36:08.787Z,60.96
2019-03-17T06:37:17.116Z,60.94
2019-03-17T06:38:25.568Z,60.67
2019-03-17T06:39:33.654Z,60.62
2019-03-17T06:40:42.030Z,60.47
2019-03-17T06:41:50.202Z,60.75
2019-03-17T06:42:58.218Z,60.50
2019-03-17T06:44:06.433Z,60.08
2019-03-17T06:45:15.005Z,60.03
2019-03-17T06:46:23.510Z,59.78
2019-03-17T06:47:31.713Z,59.64
2019-03-17T06:48:40.127Z,59.31
2019-03-17T06:49:49.032Z,59.13
2019-03-17T06:50:57.790Z,59.04
2019-03-17T06:52:06.597Z,58.68
2019-03-17T06:53:14.868Z,58.29
2019-03-17T06:54:23.472Z,58.28
2019-03-17T06:55:31.925Z,57.97
2019-03-17T06:56:40.590Z,57.34
2019-03-17T06:57:48.737Z,57.40
2019-03-17T06:58:57.074Z,57.11
2019-03-17T07:00:07.321Z,56.82
2019-03-17T07:01:15.584Z,56.89
2019-03-17T07:02:23.938Z,57.18
2019-03-17T07:03:32.227Z,56.69
2019-03-17T07:04:40.443Z,56.43
2019-03-17T07:05:49.077Z,55.69
2019-03-17T07:06:57.398Z,55.81
2019-03-17T07:08:05.639Z,55.80
2019-03-17T07:09:13.598Z,55.32
2019-03-17T07:10:21.869Z,55.43
2019-03-17T07:11:30.340Z,54.94
2019-03-17T07:12:40.809Z,55.02
2019-03-17T07:13:49.356Z,54.57
2019-03-17T07:14:57.510Z,54.61
2019-03-17T07:16:05.618Z,54.72
2019-03-17T07:17:13.998Z,53.86
2019-03-17T07:18:22.138Z,53.97
2019-03-17T07:19:30.515Z,53.64
2019-03-17T07:20:38.826Z,53.94
2019-03-17T07:21:46.871Z,53.62
2019-03-17T07:22:55.033Z,53.53
2019-03-17T07:24:03.311Z,53.32
2019-03-17T07:25:11.877Z,53.69
2019-03-17T07:26:20.519Z,53.43
2019-03-17T07:27:29.148Z,53.55
2019-03-17T07:28:37.655Z,53.42
2019-03-17T07:29:46.052Z,53.44
2019-03-17T07:30:54.388Z,53.38
2019-03-17T07:32:02.667Z,53.02
2019-03-17T07:33:11.050Z,53.22
2019-03-17T07:34:19.372Z,53.20
2019-03-17T07:35:27.539Z,53.45
2019-03-17T07:36:36.068Z,53.21
2019-03-17T07:37:56.193Z,53.49
2019-03-17T07:38:55.836Z,52.96
2019-03-17T07:40:05.467Z,52.80
2019-03-17T07:41:13.909Z,52.87
2019-03-17T07:42:22.169Z,52.71
2019-03-17T07:43:30.368Z,52.43
2019-03-17T07:44:38.584Z,52.23
2019-03-17T07:45:47.186Z,51.99
2019-03-17T07:46:55.082Z,52.04
2019-03-17T07:48:04.003Z,51.89
2019-03-17T07:49:12.187Z,51.68
2019-03-17T07:50:20.582Z,51.01
2019-03-17T07:51:29.292Z,50.79
2019-03-17T07:52:37.587Z,50.58
2019-03-17T07:53:47.381Z,50.20
2019-03-17T07:54:55.655Z,49.78
2019-03-17T07:56:04.143Z,50.09
2019-03-17T07:57:12.237Z,49.61
2019-03-17T07:58:20.454Z,49.58
2019-03-17T07:59:29.167Z,49.26
2019-03-17T08:00:37.450Z,48.74
2019-03-17T08:01:45.836Z,49.21
2019-03-17T08:02:54.034Z,49.36
2019-03-17T08:04:02.368Z,49.25
2019-03-17T08:05:11.698Z,48.85
2019-03-17T08:06:20.167Z,48.80
2019-03-17T08:07:28.692Z,48.68
2019-03-17T08:08:37.413Z,48.04
2019-03-17T08:09:46.017Z,47.70
2019-03-17T08:10:54.334Z,48.07
2019-03-17T08:12:02.428Z,47.48
2019-03-17T08:13:11.343Z,47.02
2019-03-17T08:14:19.651Z,47.29
2019-03-17T08:15:28.481Z,47.22
2019-03-17T08:16:36.907Z,46.85
2019-03-17T08:17:45.045Z,46.50
2019-03-17T08:18:53.410Z,46.84
2019-03-17T08:20:03.470Z,47.24
2019-03-17T08:21:11.679Z,46.52
2019-03-17T08:22:20.128Z,46.21
2019-03-17T08:23:28.410Z,46.04
2019-03-17T08:24:36.404Z,46.22
2019-03-17T08:25:44.489Z,45.89
2019-03-17T08:26:52.811Z,46.20
2019-03-17T08:28:00.898Z,45.28
2019-03-17T08:29:09.601Z,45.17
2019-03-17T08:30:18.839Z,44.74
2019-03-17T08:31:27.685Z,44.48
2019-03-17T08:32:35.767Z,44.70
2019-03-17T08:33:44.303Z,44.76
2019-03-17T08:34:52.815Z,44.63
2019-03-17T08:36:01.366Z,44.72
2019-03-17T08:37:09.555Z,44.78
2019-03-17T08:38:22.219Z,44.44
2019-03-17T08:39:28.174Z,43.38
2019-03-17T08:40:36.428Z,42.73
2019-03-17T08:41:44.997Z,42.68
2019-03-17T08:42:53.869Z,42.30
2019-03-17T08:44:01.944Z,42.08
2019-03-17T08:45:13.223Z,41.70
2019-03-17T08:46:21.319Z,41.47
2019-03-17T08:47:30.077Z,41.36
2019-03-17T08:48:38.569Z,41.20
2019-03-17T08:49:46.727Z,40.95
2019-03-17T08:50:54.939Z,41.25
2019-03-17T08:52:03.367Z,41.73
2019-03-17T08:53:11.622Z,40.70
2019-03-17T08:54:19.930Z,40.92
2019-03-17T08:55:29.022Z,40.82
2019-03-17T08:56:37.547Z,40.70
2019-03-17T08:57:46.182Z,40.69
2019-03-17T08:58:54.587Z,40.88
2019-03-17T09:00:02.906Z,40.68
2019-03-17T09:01:11.435Z,39.94
2019-03-17T09:02:19.853Z,40.19
2019-03-17T09:03:30.615Z,39.46
2019-03-17T09:04:38.945Z,39.59
2019-03-17T09:05:47.358Z,39.87
2019-03-17T09:06:55.815Z,39.96
2019-03-17T09:08:04.158Z,39.87
2019-03-17T09:09:12.455Z,39.42
2019-03-17T09:10:20.717Z,39.58
2019-03-17T09:11:29.280Z,39.61
2019-03-17T09:12:37.344Z,38.92
2019-03-17T09:13:45.510Z,38.78
2019-03-17T09:14:54.273Z,38.76
2019-03-17T09:16:02.378Z,38.30
2019-03-17T09:17:14.615Z,38.66
2019-03-17T09:18:20.820Z,37.83
2019-03-17T09:19:29.270Z,37.89
2019-03-17T09:20:40.197Z,37.93
2019-03-17T09:21:48.833Z,38.11
2019-03-17T09:22:57.361Z,37.93
2019-03-17T09:24:16.574Z,37.62
2019-03-17T09:25:15.547Z,38.08
2019-03-17T09:26:23.743Z,37.59
2019-03-17T09:27:32.358Z,37.59
2019-03-17T09:28:40.664Z,36.41
2019-03-17T09:29:49.055Z,36.46
2019-03-17T09:30:57.733Z,36.35
2019-03-17T09:32:05.859Z,36.06
2019-03-17T09:33:14.980Z,35.72
2019-03-17T09:34:22.983Z,35.46
2019-03-17T09:35:31.278Z,35.72
2019-03-17T09:36:39.476Z,35.64
2019-03-17T09:37:49.571Z,35.48
2019-03-17T09:38:57.667Z,34.65
2019-03-17T09:40:10.296Z,34.56
2019-03-17T09:41:18.639Z,34.17
2019-03-17T09:42:26.841Z,33.27
2019-03-17T09:43:35.062Z,33.16
2019-03-17T09:44:43.150Z,33.59
2019-03-17T09:45:51.448Z,33.70
2019-03-17T09:46:59.588Z,33.48
2019-03-17T09:48:07.528Z,33.42
2019-03-17T09:49:18.071Z,33.26
2019-03-17T09:50:26.313Z,33.44
2019-03-17T09:51:34.333Z,33.28
2019-03-17T09:52:42.697Z,32.88
2019-03-17T09:53:50.969Z,32.91
2019-03-17T09:54:59.101Z,33.02
2019-03-17T09:56:07.477Z,32.85
2019-03-17T09:57:16.009Z,32.61
2019-03-17T09:58:24.509Z,32.07
2019-03-17T09:59:33.310Z,31.60
2019-03-17T10:00:42.373Z,32.05
2019-03-17T10:01:50.412Z,31.84
2019-03-17T10:02:58.892Z,31.74
2019-03-17T10:04:07.114Z,31.26
2019-03-17T10:05:15.396Z,31.16
2019-03-17T10:06:23.942Z,30.43
2019-03-17T10:07:32.344Z,30.73
2019-03-17T10:08:41.055Z,30.76
2019-03-17T10:09:49.256Z,30.95
2019-03-17T10:10:57.880Z,30.41
2019-03-17T10:12:06.251Z,30.06
2019-03-17T10:13:14.485Z,30.35
2019-03-17T10:14:22.662Z,30.36
2019-03-17T10:15:33.275Z,29.84
2019-03-17T10:16:42.054Z,29.54
2019-03-17T10:17:50.524Z,29.66
2019-03-17T10:18:58.741Z,29.33
2019-03-17T10:20:13.952Z,29.58
2019-03-17T10:21:22.761Z,28.52
2019-03-17T10:22:31.702Z,28.34
2019-03-17T10:23:39.848Z,27.99
2019-03-17T10:24:48.123Z,27.62
2019-03-17T10:25:56.369Z,27.28
2019-03-17T10:27:05.718Z,26.78
2019-03-17T10:28:14.422Z,27.00
2019-03-17T10:29:22.571Z,26.88
2019-03-17T10:30:31.024Z,26.42
2019-03-17T10:31:39.369Z,26.55
2019-03-17T10:32:47.413Z,26.36
2019-03-17T10:33:55.749Z,26.19
2019-03-17T10:35:04.112Z,26.00
2019-03-17T10:36:12.166Z,25.85
2019-03-17T10:37:20.321Z,25.95
2019-03-17T10:38:29.444Z,25.95
2019-03-17T10:39:37.966Z,25.96
2019-03-17T10:40:48.421Z,25.28
2019-03-17T10:41:56.470Z,25.03
2019-03-17T10:43:05.001Z,25.14
2019-03-17T10:44:13.368Z,24.59
2019-03-17T10:45:21.611Z,24.37
2019-03-17T10:46:30.255Z,24.20
2019-03-17T10:47:38.421Z,24.21
2019-03-17T10:48:47.483Z,24.45
2019-03-17T10:49:55.962Z,24.15
2019-03-17T10:51:04.412Z,23.92
2019-03-17T10:52:12.595Z,23.19
2019-03-17T10:53:21.304Z,23.07
2019-03-17T10:54:30.214Z,23.15
2019-03-17T10:55:38.383Z,23.29
2019-03-17T10:56:46.539Z,23.05
2019-03-17T10:57:54.975Z,23.42
2019-03-17T10:59:04.201Z,22.72
2019-03-17T11:00:20.973Z,22.30
2019-03-17T11:01:29.497Z,22.22
2019-03-17T11:02:37.798Z,22.08
2019-03-17T11:03:46.206Z,22.12
2019-03-17T11:04:54.449Z,22.29
2019-03-17T11:06:03.062Z,22.02
2019-03-17T11:07:11.241Z,21.63
2019-03-17T11:08:19.970Z,21.29
2019-03-17T11:09:28.893Z,20.67
2019-03-17T11:10:37.605Z,20.98
2019-03-17T11:11:46.319Z,20.56
2019-03-17T11:12:54.662Z,20.33
2019-03-17T11:14:03.578Z,20.40
2019-03-17T11:15:24.252Z,20.05
2019-03-17T11:16:32.571Z,20.30
2019-03-17T11:17:41.334Z,19.73
2019-03-17T11:18:49.633Z,19.77
2019-03-17T11:19:57.849Z,19.45
2019-03-17T11:21:06.533Z,18.99
2019-03-17T11:22:14.893Z,18.98
2019-03-17T11:23:23.461Z,18.98
2019-03-17T11:24:32.247Z,18.91
2019-03-17T11:25:40.908Z,18.65
2019-03-17T11:26:49.295Z,18.31
2019-03-17T11:27:57.955Z,17.92
2019-03-17T11:29:06.079Z,18.19
2019-03-17T11:30:24.604Z,18.14
2019-03-17T11:31:32.981Z,18.28
2019-03-17T11:32:41.190Z,18.03
2019-03-17T11:33:49.238Z,18.30
2019-03-17T11:34:57.521Z,18.58
2019-03-17T11:36:05.851Z,17.71
2019-03-17T11:37:14.314Z,17.72
2019-03-17T11:38:22.972Z,17.55
2019-03-17T11:39:37.848Z,17.59
2019-03-17T11:40:41.815Z,17.98
2019-03-17T11:41:50.582Z,17.95
2019-03-17T11:42:59.864Z,18.02
2019-03-17T11:44:08.228Z,18.05
2019-03-17T11:45:17.820Z,17.95
2019-03-17T11:46:25.947Z,18.22
2019-03-17T11:47:34.200Z,18.48
2019-03-17T11:48:42.398Z,18.26
2019-03-17T11:49:50.993Z,18.34
2019-03-17T11:50:59.705Z,18.19
2019-03-17T11:52:10.085Z,18.21
2019-03-17T11:53:18.557Z,18.40
2019-03-17T11:54:27.027Z,18.33
2019-03-17T11:55:35.694Z,18.35
2019-03-17T11:56:43.687Z,18.57
2019-03-17T11:57:52.020Z,18.29
2019-03-17T11:59:00.678Z,18.17
2019-03-17T12:00:16.029Z,18.31
2019-03-17T12:01:24.249Z,18.01
2019-03-17T12:02:32.870Z,17.52
2019-03-17T12:03:41.100Z,17.55
2019-03-17T12:04:49.356Z,17.06
2019-03-17T12:05:57.560Z,16.73
2019-03-17T12:07:05.867Z,16.61
2019-03-17T12:08:14.698Z,16.79
2019-03-17T12:09:28.931Z,16.80
2019-03-17T12:10:32.831Z,16.62
2019-03-17T12:11:41.313Z,16.64
2019-03-17T12:12:49.931Z,16.55
2019-03-17T12:13:58.132Z,16.36
2019-03-17T12:15:11.222Z,16.56
2019-03-17T12:16:19.806Z,16.70
2019-03-17T12:17:28.259Z,15.81
2019-03-17T12:18:37.326Z,15.81
2019-03-17T12:19:45.372Z,16.11
2019-03-17T12:20:54.021Z,16.16
2019-03-17T12:22:08.885Z,15.63
2019-03-17T12:23:11.934Z,15.41
2019-03-17T12:24:20.052Z,15.73
2019-03-17T12:25:28.747Z,16.05
2019-03-17T12:26:36.900Z,16.25
2019-03-17T12:27:45.860Z,16.48
2019-03-17T12:28:53.946Z,16.59
2019-03-17T12:30:02.167Z,16.62
2019-03-17T12:31:10.783Z,16.31
2019-03-17T12:32:18.906Z,16.04
2019-03-17T12:33:27.145Z,15.87
2019-03-17T12:34:35.326Z,16.12
2019-03-17T12:35:43.798Z,16.00
2019-03-17T12:36:53.482Z,16.11
2019-03-17T12:38:01.766Z,16.26
2019-03-17T12:39:10.493Z,16.14
2019-03-17T12:40:18.868Z,15.50
2019-03-17T12:41:26.940Z,15.51
2019-03-17T12:42:35.317Z,15.09
2019-03-17T12:43:43.761Z,14.90
2019-03-17T12:44:52.148Z,14.97
2019-03-17T12:46:00.531Z,15.22
2019-03-17T12:47:08.727Z,15.28
2019-03-17T12:48:16.773Z,14.96
2019-03-17T12:49:26.777Z,14.72
2019-03-17T12:50:34.845Z,14.30
2019-03-17T12:51:43.190Z,13.87
2019-03-17T12:52:51.766Z,13.98
2019-03-17T12:54:00.069Z,14.04
2019-03-17T12:55:09.924Z,14.29
2019-03-17T12:56:18.010Z,14.52
2019-03-17T12:57:26.259Z,13.96
2019-03-17T12:58:34.389Z,14.37
2019-03-17T12:59:43.137Z,14.44
2019-03-17T13:00:51.413Z,14.48
2019-03-17T13:01:59.765Z,14.41
2019-03-17T13:03:07.919Z,14.38
2019-03-17T13:04:16.017Z,14.25
2019-03-17T13:05:24.112Z,14.06
2019-03-17T13:06:32.621Z,14.11
2019-03-17T13:07:40.822Z,13.90
2019-03-17T13:08:49.524Z,14.20
2019-03-17T13:09:57.677Z,14.14
2019-03-17T13:11:06.330Z,13.99
2019-03-17T13:12:14.363Z,14.07
2019-03-17T13:13:22.906Z,13.85
2019-03-17T13:14:30.930Z,13.44
2019-03-17T13:15:39.688Z,13.56
2019-03-17T13:16:47.955Z,13.86
2019-03-17T13:17:56.267Z,13.90
2019-03-17T13:19:04.442Z,14.01
2019-03-17T13:20:22.267Z,13.66
2019-03-17T13:21:31.387Z,13.79
2019-03-17T13:22:39.891Z,13.10
2019-03-17T13:23:48.239Z,13.15
2019-03-17T13:24:56.729Z,13.10
2019-03-17T13:26:05.468Z,13.38
2019-03-17T13:27:13.708Z,13.44
2019-03-17T13:28:22.155Z,13.42
2019-03-17T13:29:30.311Z,12.91
2019-03-17T13:30:38.371Z,13.08
2019-03-17T13:31:47.075Z,13.15
2019-03-17T13:32:55.064Z,13.21
2019-03-17T13:34:03.450Z,13.24
2019-03-17T13:35:11.988Z,13.24
2019-03-17T13:36:20.299Z,13.05
2019-03-17T13:37:28.563Z,13.31
2019-03-17T13:38:36.768Z,13.42
2019-03-17T13:39:45.035Z,12.63
2019-03-17T13:40:53.438Z,12.96
2019-03-17T13:42:01.373Z,13.04
2019-03-17T13:43:09.359Z,13.19
2019-03-17T13:44:17.629Z,12.70
2019-03-17T13:45:25.779Z,12.60
2019-03-17T13:46:33.839Z,12.58
2019-03-17T13:47:42.599Z,12.60
2019-03-17T13:48:50.875Z,12.67
2019-03-17T13:49:59.231Z,12.60
2019-03-17T13:51:07.434Z,12.80
2019-03-17T13:52:15.883Z,12.78
2019-03-17T13:53:23.977Z,12.44
2019-03-17T13:54:31.994Z,12.24
2019-03-17T13:55:40.123Z,12.17
2019-03-17T13:56:48.326Z,12.28
2019-03-17T13:58:00.585Z,12.30
2019-03-17T13:59:08.874Z,12.61
2019-03-17T14:00:17.224Z,12.45
2019-03-17T14:01:25.235Z,12.47
2019-03-17T14:02:33.173Z,12.25
2019-03-17T14:03:41.358Z,12.35
2019-03-17T14:04:49.528Z,12.31
2019-03-17T14:05:57.840Z,12.38
2019-03-17T14:07:06.298Z,12.42
2019-03-17T14:08:14.451Z,12.41
2019-03-17T14:09:22.434Z,12.18
2019-03-17T14:10:40.350Z,12.33
2019-03-17T14:11:40.760Z,12.11
2019-03-17T14:12:49.281Z,12.04
2019-03-17T14:13:57.407Z,11.68
2019-03-17T14:15:08.871Z,11.73
2019-03-17T14:16:16.962Z,11.73
2019-03-17T14:17:25.155Z,11.79
2019-03-17T14:18:33.648Z,12.09
2019-03-17T14:19:43.315Z,12.30
2019-03-17T14:20:51.517Z,12.18
2019-03-17T14:21:59.807Z,12.31
2019-03-17T14:23:08.344Z,12.50
2019-03-17T14:24:16.755Z,12.44
2019-03-17T14:25:36.866Z,12.41
2019-03-17T14:26:44.870Z,12.63
2019-03-17T14:27:53.219Z,12.64
2019-03-17T14:29:01.989Z,12.35
2019-03-17T14:30:14.675Z,12.49
2019-03-17T14:31:22.777Z,12.67
2019-03-17T14:32:30.828Z,12.65
2019-03-17T14:33:38.998Z,12.45
2019-03-17T14:34:47.443Z,12.27
2019-03-17T14:35:55.579Z,12.45
2019-03-17T14:37:03.875Z,12.37
2019-03-17T14:38:12.108Z,12.12
2019-03-17T14:39:20.319Z,12.23
2019-03-17T14:40:28.693Z,12.35
2019-03-17T14:41:36.901Z,12.31
2019-03-17T14:42:47.386Z,12.10
2019-03-17T14:43:55.421Z,11.93